Time;durP1;ratioP1;P1;durP2;ratioP2;P2;SDS_P1;SDS_P2;PMS_P1;PMS_P2;Temp;Humidity;BMP_temperature;BMP_pressure;BME280_temperature;BME280_humidity;BME280_pressure;Samples;Min_cycle;Max_cycle;Signal;HPM_P1;HPM_P2
2023/04/09 00:02:18;;;;;;;7.10;2.30;;;;;;;;;;4992905;28;20038;-66
2023/04/09 00:04:43;;;;;;;4.70;2.28;;;;;;;;;;4991659;28;20034;-66
2023/04/09 00:07:09;;;;;;;4.70;2.40;;;;;;;;;;4992952;28;20027;-66
2023/04/09 00:09:34;;;;;;;4.72;2.10;;;;;;;;;;4992697;28;20026;-66
2023/04/09 00:12:00;;;;;;;4.50;2.25;;;;;;;;;;4992766;28;20027;-67
2023/04/09 00:14:26;;;;;;;4.65;2.20;;;;;;;;;;4992515;28;20037;-66
2023/04/09 00:16:51;;;;;;;3.72;2.00;;;;;;;;;;4992655;28;20457;-66
2023/04/09 00:19:17;;;;;;;4.75;2.00;;;;;;;;;;4992480;28;20036;-66
2023/04/09 00:21:42;;;;;;;3.83;1.95;;;;;;;;;;4992414;28;20022;-66
2023/04/09 00:24:08;;;;;;;5.32;1.80;;;;;;;;;;4992369;28;20105;-66
2023/04/09 00:26:33;;;;;;;4.20;1.90;;;;;;;;;;4992585;28;20018;-66
2023/04/09 00:28:59;;;;;;;4.70;1.80;;;;;;;;;;4992469;28;20513;-66
2023/04/09 00:31:24;;;;;;;4.32;1.70;;;;;;;;;;4992205;28;20089;-66
2023/04/09 00:33:50;;;;;;;3.80;1.88;;;;;;;;;;4992366;28;20037;-66
2023/04/09 00:36:15;;;;;;;4.72;1.75;;;;;;;;;;4992282;28;20038;-66
2023/04/09 00:38:41;;;;;;;3.15;1.58;;;;;;;;;;5007112;28;20033;-67
2023/04/09 00:41:07;;;;;;;3.85;1.70;;;;;;;;;;4991736;28;20109;-67
2023/04/09 00:43:32;;;;;;;6.15;2.13;;;;;;;;;;4991951;28;20034;-67
2023/04/09 00:45:59;;;;;;;4.88;1.77;;;;;;;;;;4992182;28;20074;-67
2023/04/09 00:48:25;;;;;;;4.63;1.90;;;;;;;;;;4992213;28;20030;-66
2023/04/09 00:50:50;;;;;;;4.63;1.70;;;;;;;;;;4991742;28;20033;-66
2023/04/09 00:53:17;;;;;;;3.33;1.88;;;;;;;;;;4991809;28;20109;-66
2023/04/09 00:55:43;;;;;;;3.75;2.03;;;;;;;;;;4991801;28;20057;-66
2023/04/09 00:58:09;;;;;;;4.00;1.98;;;;;;;;;;4991940;28;20406;-66
2023/04/09 01:00:34;;;;;;;3.58;1.85;;;;;;;;;;4991792;28;20027;-66
2023/04/09 01:03:01;;;;;;;5.60;1.90;;;;;;;;;;4991781;28;20402;-66
2023/04/09 01:06:01;;;;;;;5.53;1.85;;;;;;;;;;4991647;28;20030;-66
2023/04/09 01:08:50;;;;;;;6.05;1.90;;;;;;;;;;4991758;28;20540;-66
2023/04/09 01:11:58;;;;;;;3.00;1.60;;;;;;;;;;4979456;28;20034;-66
2023/04/09 01:14:28;;;;;;;5.93;1.80;;;;;;;;;;4989752;28;20077;-66
2023/04/09 01:17:01;;;;;;;3.60;1.63;;;;;;;;;;4991722;28;20113;-67
2023/04/09 01:20:03;;;;;;;4.30;1.83;;;;;;;;;;4990038;28;20033;-68
2023/04/09 01:22:59;;;;;;;3.63;1.90;;;;;;;;;;4991212;28;20093;-66
2023/04/09 01:25:42;;;;;;;4.53;1.95;;;;;;;;;;4991244;28;20031;-66
2023/04/09 01:28:17;;;;;;;4.00;1.92;;;;;;;;;;4991382;28;20022;-66
2023/04/09 01:30:47;;;;;;;4.85;1.67;;;;;;;;;;4991157;28;20038;-66
2023/04/09 01:33:15;;;;;;;5.60;1.80;;;;;;;;;;4991999;28;20033;-66
2023/04/09 01:35:42;;;;;;;4.35;1.83;;;;;;;;;;4991057;28;20410;-66
2023/04/09 01:38:09;;;;;;;5.55;2.05;;;;;;;;;;4991259;28;20030;-66
2023/04/09 01:40:35;;;;;;;3.67;2.00;;;;;;;;;;4991045;28;20050;-65
2023/04/09 01:43:01;;;;;;;3.40;1.75;;;;;;;;;;4991090;28;20077;-66
2023/04/09 01:45:27;;;;;;;5.30;1.83;;;;;;;;;;4991003;28;20406;-66
2023/04/09 01:47:54;;;;;;;3.97;1.77;;;;;;;;;;4991123;28;20033;-67
2023/04/09 01:50:19;;;;;;;3.65;1.70;;;;;;;;;;4990884;28;20018;-67
2023/04/09 01:52:45;;;;;;;5.10;1.83;;;;;;;;;;4989944;28;20049;-66
2023/04/09 01:55:11;;;;;;;3.30;1.73;;;;;;;;;;4990744;28;20612;-66
2023/04/09 01:57:36;;;;;;;3.28;1.75;;;;;;;;;;4990962;28;20029;-66
2023/04/09 02:00:03;;;;;;;4.85;3.13;;;;;;;;;;4991026;28;20538;-65
2023/04/09 02:02:45;;;;;;;7.75;3.70;;;;;;;;;;4990695;28;20027;-66
2023/04/09 02:05:14;;;;;;;7.60;4.20;;;;;;;;;;4990496;28;20038;-66
2023/04/09 02:07:44;;;;;;;9.75;5.10;;;;;;;;;;4990712;28;20109;-66
2023/04/09 02:10:12;;;;;;;9.32;5.75;;;;;;;;;;4990712;28;20027;-66
2023/04/09 02:12:41;;;;;;;8.32;5.55;;;;;;;;;;4990674;28;20026;-66
2023/04/09 02:15:07;;;;;;;9.90;6.03;;;;;;;;;;4990526;28;20041;-67
2023/04/09 02:17:33;;;;;;;10.27;5.82;;;;;;;;;;4990614;28;20080;-66
2023/04/09 02:19:58;;;;;;;11.07;6.38;;;;;;;;;;4990511;28;20035;-66
2023/04/09 02:22:23;;;;;;;13.13;7.10;;;;;;;;;;4990246;28;20061;-67
2023/04/09 02:24:49;;;;;;;9.70;6.50;;;;;;;;;;4989289;28;20026;-65
2023/04/09 02:27:15;;;;;;;9.82;6.10;;;;;;;;;;4990509;28;20022;-66
2023/04/09 02:29:40;;;;;;;10.98;6.45;;;;;;;;;;4989264;28;20058;-66
2023/04/09 02:32:06;;;;;;;6.70;2.70;;;;;;;;;;4990376;28;20026;-66
2023/04/09 02:34:32;;;;;;;4.35;2.22;;;;;;;;;;4990361;28;20026;-67
2023/04/09 02:36:57;;;;;;;5.13;2.60;;;;;;;;;;4990172;28;20026;-66
2023/04/09 02:39:23;;;;;;;3.80;2.70;;;;;;;;;;4990440;28;20026;-66
2023/04/09 02:41:48;;;;;;;7.75;2.42;;;;;;;;;;4990262;28;20022;-66
2023/04/09 02:44:14;;;;;;;3.30;1.70;;;;;;;;;;4990279;28;20051;-66
2023/04/09 02:46:40;;;;;;;2.55;1.48;;;;;;;;;;4990292;28;20109;-66
2023/04/09 02:49:05;;;;;;;2.78;1.70;;;;;;;;;;4990345;28;20026;-67
2023/04/09 02:51:34;;;;;;;3.63;1.60;;;;;;;;;;4990028;28;20085;-67
2023/04/09 02:53:59;;;;;;;6.40;2.05;;;;;;;;;;4990213;28;20030;-67
2023/04/09 02:56:24;;;;;;;4.00;1.80;;;;;;;;;;4990140;28;20034;-66
2023/04/09 02:58:52;;;;;;;4.13;1.80;;;;;;;;;;4990343;28;20080;-67
2023/04/09 03:01:18;;;;;;;3.55;1.60;;;;;;;;;;4990053;28;20040;-66
2023/04/09 03:03:44;;;;;;;4.63;1.60;;;;;;;;;;4991728;28;20034;-66
2023/04/09 03:06:09;;;;;;;3.42;1.55;;;;;;;;;;4993803;28;20533;-66
2023/04/09 03:08:35;;;;;;;3.30;1.30;;;;;;;;;;4994063;28;20026;-66
2023/04/09 03:11:00;;;;;;;3.47;1.60;;;;;;;;;;4993890;28;20022;-67
2023/04/09 03:13:28;;;;;;;2.75;1.42;;;;;;;;;;4993849;28;20046;-66
2023/04/09 03:15:54;;;;;;;3.28;1.55;;;;;;;;;;4993446;28;20104;-66
2023/04/09 03:18:20;;;;;;;2.25;1.50;;;;;;;;;;4993899;28;20438;-66
2023/04/09 03:20:45;;;;;;;4.80;1.67;;;;;;;;;;4993641;28;20019;-66
2023/04/09 03:23:10;;;;;;;3.10;1.67;;;;;;;;;;4993770;28;20088;-66
2023/04/09 03:25:36;;;;;;;5.43;1.70;;;;;;;;;;4993679;28;20114;-66
2023/04/09 03:28:02;;;;;;;2.83;1.25;;;;;;;;;;4993685;28;20439;-67
2023/04/09 03:30:27;;;;;;;4.40;1.80;;;;;;;;;;4993574;28;20509;-66
2023/04/09 03:32:53;;;;;;;3.60;1.63;;;;;;;;;;4993184;28;20077;-67
2023/04/09 03:35:18;;;;;;;2.47;1.40;;;;;;;;;;4993339;28;20073;-67
2023/04/09 03:37:44;;;;;;;2.60;1.40;;;;;;;;;;4993246;28;20069;-67
2023/04/09 03:40:10;;;;;;;2.92;1.30;;;;;;;;;;4993481;28;20022;-66
2023/04/09 03:42:36;;;;;;;5.00;1.67;;;;;;;;;;4993176;28;20797;-67
2023/04/09 03:45:02;;;;;;;5.30;1.50;;;;;;;;;;4993464;28;20077;-67
2023/04/09 03:47:28;;;;;;;2.38;1.33;;;;;;;;;;4993034;28;20031;-66
2023/04/09 03:49:53;;;;;;;3.88;1.58;;;;;;;;;;4992327;28;20030;-67
2023/04/09 03:52:18;;;;;;;3.35;1.40;;;;;;;;;;4992845;28;20690;-66
2023/04/09 03:54:44;;;;;;;4.65;1.30;;;;;;;;;;4993208;28;20022;-66
2023/04/09 03:57:09;;;;;;;3.60;1.55;;;;;;;;;;4992968;28;20414;-65
2023/04/09 03:59:34;;;;;;;3.40;1.42;;;;;;;;;;4993147;28;20073;-66
2023/04/09 04:02:00;;;;;;;2.50;1.30;;;;;;;;;;4992880;28;20034;-65
2023/04/09 04:04:26;;;;;;;6.28;1.38;;;;;;;;;;4992823;28;20027;-65
2023/04/09 04:06:51;;;;;;;2.60;1.00;;;;;;;;;;4992529;28;20061;-65
2023/04/09 04:09:16;;;;;;;2.33;1.30;;;;;;;;;;4992984;28;20023;-66
2023/04/09 04:11:42;;;;;;;2.97;1.60;;;;;;;;;;4992751;28;20057;-65
2023/04/09 04:14:07;;;;;;;3.75;1.50;;;;;;;;;;4992555;28;20101;-67
2023/04/09 04:16:33;;;;;;;2.25;1.33;;;;;;;;;;4991793;28;20053;-66
2023/04/09 04:18:58;;;;;;;3.00;1.40;;;;;;;;;;4992974;28;20080;-65
2023/04/09 04:21:23;;;;;;;3.33;1.63;;;;;;;;;;4991062;28;20447;-66
2023/04/09 04:23:49;;;;;;;4.80;2.08;;;;;;;;;;4992446;28;20061;-67
2023/04/09 04:26:14;;;;;;;4.93;1.92;;;;;;;;;;4992356;28;20464;-67
2023/04/09 04:28:40;;;;;;;3.63;1.70;;;;;;;;;;4992589;28;20022;-67
2023/04/09 04:31:10;;;;;;;4.65;1.60;;;;;;;;;;4992564;28;20510;-65
2023/04/09 04:33:37;;;;;;;4.13;2.00;;;;;;;;;;4992323;28;20030;-66
2023/04/09 04:36:07;;;;;;;2.83;1.50;;;;;;;;;;4992595;28;20030;-66
2023/04/09 04:38:33;;;;;;;2.53;1.60;;;;;;;;;;4992488;28;20486;-66
2023/04/09 04:40:59;;;;;;;2.30;1.38;;;;;;;;;;4992472;28;20280;-65
2023/04/09 04:43:25;;;;;;;3.13;1.35;;;;;;;;;;4991860;28;20574;-66
2023/04/09 04:45:50;;;;;;;3.25;1.35;;;;;;;;;;4990791;28;20133;-66
2023/04/09 04:48:16;;;;;;;2.58;1.52;;;;;;;;;;4990683;28;20093;-66
2023/04/09 04:50:41;;;;;;;4.28;1.77;;;;;;;;;;4990657;28;20069;-66
2023/04/09 04:53:06;;;;;;;3.22;1.40;;;;;;;;;;4991880;28;20105;-65
2023/04/09 04:55:35;;;;;;;4.28;1.40;;;;;;;;;;4991933;28;20022;-68
2023/04/09 04:58:00;;;;;;;2.63;1.48;;;;;;;;;;4991648;28;20142;-67
2023/04/09 05:00:26;;;;;;;3.33;1.30;;;;;;;;;;4990702;28;20597;-66
2023/04/09 05:02:51;;;;;;;5.63;2.00;;;;;;;;;;4991685;28;20033;-67
2023/04/09 05:05:16;;;;;;;4.90;2.03;;;;;;;;;;4991688;28;20121;-67
2023/04/09 05:07:42;;;;;;;4.88;1.90;;;;;;;;;;4991638;28;20018;-67
2023/04/09 05:10:08;;;;;;;5.00;2.08;;;;;;;;;;4990506;28;20026;-66
2023/04/09 05:12:33;;;;;;;4.35;2.03;;;;;;;;;;4991557;28;20042;-67
2023/04/09 05:14:59;;;;;;;4.43;1.80;;;;;;;;;;4991457;28;20061;-67
2023/04/09 05:17:24;;;;;;;3.33;1.70;;;;;;;;;;4991343;28;20429;-66
2023/04/09 05:19:53;;;;;;;2.90;1.42;;;;;;;;;;4991691;28;20570;-67
2023/04/09 05:22:19;;;;;;;2.42;1.50;;;;;;;;;;4991261;28;20054;-66
2023/04/09 05:24:45;;;;;;;3.00;1.35;;;;;;;;;;4991530;28;20058;-67
2023/04/09 05:27:10;;;;;;;4.13;1.80;;;;;;;;;;4991244;28;20072;-66
2023/04/09 05:29:35;;;;;;;2.60;1.35;;;;;;;;;;4991264;28;20037;-66
2023/04/09 05:32:01;;;;;;;4.55;1.67;;;;;;;;;;4991510;28;20058;-66
2023/04/09 05:34:26;;;;;;;4.15;1.60;;;;;;;;;;4991132;28;20478;-66
2023/04/09 05:36:53;;;;;;;2.28;1.40;;;;;;;;;;4990987;28;20026;-66
2023/04/09 05:39:18;;;;;;;3.63;1.58;;;;;;;;;;4991107;28;20077;-66
2023/04/09 05:41:45;;;;;;;3.47;1.50;;;;;;;;;;4991270;28;20039;-67
2023/04/09 05:44:11;;;;;;;3.00;1.40;;;;;;;;;;4990864;28;20049;-66
2023/04/09 05:46:37;;;;;;;4.40;1.33;;;;;;;;;;4991179;28;20026;-66
2023/04/09 05:49:02;;;;;;;2.83;1.38;;;;;;;;;;4990917;28;20022;-66
2023/04/09 05:51:27;;;;;;;2.45;1.30;;;;;;;;;;4990731;28;20435;-66
2023/04/09 05:53:53;;;;;;;2.80;1.38;;;;;;;;;;4990475;28;20022;-65
2023/04/09 05:56:21;;;;;;;2.92;1.60;;;;;;;;;;4990905;28;20022;-65
2023/04/09 05:58:47;;;;;;;3.95;1.45;;;;;;;;;;4990759;28;20173;-66
2023/04/09 06:01:12;;;;;;;4.55;1.50;;;;;;;;;;4990868;28;20105;-67
2023/04/09 06:03:38;;;;;;;2.63;1.40;;;;;;;;;;4990679;28;20173;-66
2023/04/09 06:06:03;;;;;;;4.15;1.88;;;;;;;;;;4990828;28;20049;-65
2023/04/09 06:08:29;;;;;;;4.07;2.40;;;;;;;;;;4989139;28;20109;-66
2023/04/09 06:10:54;;;;;;;3.25;1.80;;;;;;;;;;4990608;28;20022;-66
2023/04/09 06:13:20;;;;;;;4.95;1.88;;;;;;;;;;4990419;28;20019;-65
2023/04/09 06:15:45;;;;;;;5.03;2.30;;;;;;;;;;4990722;28;20056;-66
2023/04/09 06:18:11;;;;;;;3.53;1.48;;;;;;;;;;4990648;28;20022;-66
2023/04/09 06:20:36;;;;;;;3.55;1.40;;;;;;;;;;4990700;28;20358;-66
2023/04/09 06:23:01;;;;;;;2.47;1.30;;;;;;;;;;4990431;28;20102;-65
2023/04/09 06:25:27;;;;;;;2.22;1.30;;;;;;;;;;4989131;28;20034;-66
2023/04/09 06:27:52;;;;;;;3.50;1.60;;;;;;;;;;4990296;28;20478;-65
2023/04/09 06:30:18;;;;;;;3.42;1.40;;;;;;;;;;4990477;28;20383;-67
2023/04/09 06:32:44;;;;;;;3.45;1.20;;;;;;;;;;4990348;28;20038;-67
2023/04/09 06:35:10;;;;;;;4.85;1.60;;;;;;;;;;4990375;28;20034;-66
2023/04/09 06:37:35;;;;;;;3.40;1.45;;;;;;;;;;4990405;28;20077;-66
2023/04/09 06:40:01;;;;;;;3.67;1.63;;;;;;;;;;4994275;28;20018;-65
2023/04/09 06:42:26;;;;;;;2.47;1.50;;;;;;;;;;4994406;28;20502;-67
2023/04/09 06:44:52;;;;;;;2.28;1.33;;;;;;;;;;4993978;28;20081;-66
2023/04/09 06:47:17;;;;;;;2.53;1.40;;;;;;;;;;4994412;28;20104;-66
2023/04/09 06:49:42;;;;;;;3.60;1.58;;;;;;;;;;4994297;28;20466;-65
2023/04/09 06:52:08;;;;;;;2.75;1.50;;;;;;;;;;4994154;28;20034;-66
2023/04/09 06:54:33;;;;;;;3.17;1.65;;;;;;;;;;4993806;28;20418;-66
2023/04/09 06:56:59;;;;;;;5.05;1.40;;;;;;;;;;4994147;28;20030;-66
2023/04/09 06:59:24;;;;;;;3.65;1.70;;;;;;;;;;4994087;28;20027;-66
2023/04/09 07:01:49;;;;;;;3.10;1.50;;;;;;;;;;4994170;28;20018;-66
2023/04/09 07:04:15;;;;;;;3.53;1.60;;;;;;;;;;4993680;28;20022;-66
2023/04/09 07:06:40;;;;;;;2.63;1.35;;;;;;;;;;4993868;28;20027;-66
2023/04/09 07:09:06;;;;;;;3.97;1.40;;;;;;;;;;4993857;28;20038;-67
2023/04/09 07:11:31;;;;;;;3.05;1.50;;;;;;;;;;4994017;28;20022;-66
2023/04/09 07:13:58;;;;;;;4.15;1.50;;;;;;;;;;4992415;28;20120;-67
2023/04/09 07:16:23;;;;;;;2.65;1.23;;;;;;;;;;4993765;28;20109;-67
2023/04/09 07:18:49;;;;;;;3.35;1.50;;;;;;;;;;4993543;28;20157;-66
2023/04/09 07:21:15;;;;;;;4.38;1.60;;;;;;;;;;4993647;28;20034;-66
2023/04/09 07:23:40;;;;;;;3.90;1.55;;;;;;;;;;4993402;28;20049;-66
2023/04/09 07:26:06;;;;;;;2.85;1.40;;;;;;;;;;4993530;28;20029;-66
2023/04/09 07:28:31;;;;;;;2.95;1.70;;;;;;;;;;4993578;28;20043;-66
2023/04/09 07:30:57;;;;;;;2.55;1.45;;;;;;;;;;4993641;28;20026;-67
2023/04/09 07:33:23;;;;;;;4.90;1.77;;;;;;;;;;4993607;28;20041;-68
2023/04/09 07:35:48;;;;;;;3.40;1.50;;;;;;;;;;4993695;28;20061;-67
2023/04/09 07:38:13;;;;;;;3.00;1.30;;;;;;;;;;4993339;28;20061;-66
2023/04/09 07:40:39;;;;;;;3.00;1.50;;;;;;;;;;4993295;28;20448;-68
2023/04/09 07:43:05;;;;;;;3.75;1.30;;;;;;;;;;4993308;28;20119;-67
2023/04/09 07:45:30;;;;;;;2.40;1.30;;;;;;;;;;4993090;28;20073;-66
2023/04/09 07:47:56;;;;;;;3.78;1.55;;;;;;;;;;4993550;28;20030;-71
2023/04/09 07:50:21;;;;;;;3.20;1.50;;;;;;;;;;4990389;28;20459;-66
2023/04/09 07:52:47;;;;;;;2.60;1.40;;;;;;;;;;4992995;28;20664;-67
2023/04/09 07:55:12;;;;;;;2.80;1.30;;;;;;;;;;4992539;28;20022;-66
2023/04/09 07:57:37;;;;;;;2.92;1.27;;;;;;;;;;4993131;28;20102;-66
2023/04/09 08:00:04;;;;;;;2.47;1.20;;;;;;;;;;4992857;28;20033;-66
2023/04/09 08:02:30;;;;;;;4.00;1.27;;;;;;;;;;4992033;28;20042;-66
2023/04/09 08:04:55;;;;;;;3.03;1.08;;;;;;;;;;4991426;28;20525;-67
2023/04/09 08:07:21;;;;;;;3.10;1.80;;;;;;;;;;4992883;28;20026;-66
2023/04/09 08:09:46;;;;;;;3.60;1.33;;;;;;;;;;4992679;28;20057;-66
2023/04/09 08:12:11;;;;;;;3.92;1.00;;;;;;;;;;4992775;28;20022;-67
2023/04/09 08:14:37;;;;;;;1.77;1.05;;;;;;;;;;4992500;28;20029;-66
2023/04/09 08:17:03;;;;;;;1.88;1.05;;;;;;;;;;4992694;28;20030;-67
2023/04/09 08:19:28;;;;;;;2.00;1.00;;;;;;;;;;4992562;28;20738;-66
2023/04/09 08:21:54;;;;;;;2.53;1.10;;;;;;;;;;4992660;28;20631;-66
2023/04/09 08:24:20;;;;;;;4.70;1.05;;;;;;;;;;4992523;28;20026;-66
2023/04/09 08:26:45;;;;;;;2.05;1.00;;;;;;;;;;4992392;28;20490;-67
2023/04/09 08:29:12;;;;;;;1.67;0.90;;;;;;;;;;4992347;28;20022;-66
2023/04/09 08:31:38;;;;;;;2.78;1.00;;;;;;;;;;5007438;28;20510;-66
2023/04/09 08:34:04;;;;;;;3.05;1.00;;;;;;;;;;4992287;28;20028;-67
2023/04/09 08:36:31;;;;;;;3.22;0.90;;;;;;;;;;4992149;28;20026;-67
2023/04/09 08:38:56;;;;;;;3.15;1.20;;;;;;;;;;4992339;28;20067;-66
2023/04/09 08:41:24;;;;;;;2.30;1.00;;;;;;;;;;4992278;28;20038;-66
2023/04/09 08:43:51;;;;;;;5.25;1.23;;;;;;;;;;4992049;28;20375;-66
2023/04/09 08:46:17;;;;;;;2.30;0.95;;;;;;;;;;4991924;28;20068;-67
2023/04/09 08:48:47;;;;;;;1.70;0.95;;;;;;;;;;4992303;28;20026;-66
2023/04/09 08:51:18;;;;;;;1.80;1.00;;;;;;;;;;4991652;28;20097;-67
2023/04/09 08:53:46;;;;;;;2.05;0.90;;;;;;;;;;4992170;28;20113;-67
2023/04/09 08:56:15;;;;;;;1.90;1.02;;;;;;;;;;4991592;28;20027;-67
2023/04/09 08:58:45;;;;;;;3.15;1.00;;;;;;;;;;4992094;28;20038;-67
2023/04/09 09:01:24;;;;;;;2.33;1.00;;;;;;;;;;4991579;28;20038;-67
2023/04/09 09:04:03;;;;;;;1.60;1.00;;;;;;;;;;4991821;28;20034;-65
2023/04/09 09:06:31;;;;;;;3.90;1.10;;;;;;;;;;4991447;28;20061;-67
2023/04/09 09:09:11;;;;;;;1.90;1.05;;;;;;;;;;4991777;28;20030;-67
2023/04/09 09:11:40;;;;;;;2.22;1.00;;;;;;;;;;4991635;28;20034;-67
2023/04/09 09:14:07;;;;;;;1.45;0.93;;;;;;;;;;4991609;28;20045;-66
2023/04/09 09:16:34;;;;;;;4.45;1.23;;;;;;;;;;4991310;28;20060;-67
2023/04/09 09:19:01;;;;;;;2.13;0.90;;;;;;;;;;4991777;28;20026;-67
2023/04/09 09:21:28;;;;;;;2.00;1.02;;;;;;;;;;4991252;28;20088;-67
2023/04/09 09:23:53;;;;;;;2.50;1.05;;;;;;;;;;4991589;28;20057;-67
2023/04/09 09:26:27;;;;;;;2.17;1.00;;;;;;;;;;4991007;28;20502;-67
2023/04/09 09:28:54;;;;;;;3.50;1.10;;;;;;;;;;4990117;28;20027;-67
2023/04/09 09:31:21;;;;;;;2.17;1.00;;;;;;;;;;4991139;28;20033;-67
2023/04/09 09:33:47;;;;;;;2.05;0.90;;;;;;;;;;4991400;28;20084;-67
2023/04/09 09:36:14;;;;;;;1.88;1.00;;;;;;;;;;4990817;28;20041;-66
2023/04/09 09:38:56;;;;;;;4.50;1.17;;;;;;;;;;4991243;28;20118;-67
2023/04/09 09:41:23;;;;;;;2.90;0.90;;;;;;;;;;4990930;28;20025;-66
2023/04/09 09:43:50;;;;;;;2.67;1.10;;;;;;;;;;4990840;28;20436;-67
2023/04/09 09:46:16;;;;;;;1.85;1.02;;;;;;;;;;4990734;28;20037;-67
2023/04/09 09:48:42;;;;;;;2.65;1.10;;;;;;;;;;4991223;28;20113;-67
2023/04/09 09:51:09;;;;;;;2.92;1.20;;;;;;;;;;4990643;28;20030;-66
2023/04/09 09:53:36;;;;;;;2.30;1.20;;;;;;;;;;4991184;28;20026;-66
2023/04/09 09:56:04;;;;;;;1.65;0.88;;;;;;;;;;4990384;28;20027;-67
2023/04/09 09:59:16;;;;;;;2.60;1.10;;;;;;;;;;4989566;28;20058;-67
2023/04/09 10:01:43;;;;;;;1.90;0.90;;;;;;;;;;4989321;28;20035;-67
2023/04/09 10:04:13;;;;;;;1.67;0.90;;;;;;;;;;4990784;28;20030;-67
2023/04/09 10:06:45;;;;;;;4.22;1.17;;;;;;;;;;4990595;28;20406;-67
2023/04/09 10:09:11;;;;;;;2.42;1.00;;;;;;;;;;4990853;28;20386;-68
2023/04/09 10:11:38;;;;;;;3.80;1.08;;;;;;;;;;4989337;28;20125;-67
2023/04/09 10:14:04;;;;;;;4.07;1.00;;;;;;;;;;4990034;28;20022;-68
2023/04/09 10:16:30;;;;;;;3.15;1.15;;;;;;;;;;4988793;28;20034;-67
2023/04/09 10:18:58;;;;;;;2.00;1.00;;;;;;;;;;4990574;28;20054;-67
2023/04/09 10:21:26;;;;;;;2.25;1.02;;;;;;;;;;4990269;28;20109;-67
2023/04/09 10:23:52;;;;;;;4.82;1.13;;;;;;;;;;4990746;28;20034;-68
2023/04/09 10:26:18;;;;;;;4.18;1.00;;;;;;;;;;4990263;28;20080;-68
2023/04/09 10:28:44;;;;;;;2.35;1.10;;;;;;;;;;4990680;28;20030;-67
2023/04/09 10:31:09;;;;;;;1.75;1.10;;;;;;;;;;4990614;28;20030;-67
2023/04/09 10:33:38;;;;;;;2.20;1.00;;;;;;;;;;4989158;28;20031;-68
2023/04/09 10:36:17;;;;;;;2.63;1.30;;;;;;;;;;4989881;28;20045;-67
2023/04/09 10:38:45;;;;;;;2.55;1.17;;;;;;;;;;4990472;28;20532;-67
2023/04/09 10:41:21;;;;;;;2.28;1.27;;;;;;;;;;4990274;28;20032;-66
2023/04/09 10:43:47;;;;;;;2.13;1.10;;;;;;;;;;4990262;28;20105;-68
2023/04/09 10:46:32;;;;;;;2.60;1.00;;;;;;;;;;4989899;28;20559;-66
2023/04/09 10:49:37;;;;;;;2.65;1.10;;;;;;;;;;4990395;28;20395;-66
2023/04/09 10:52:09;;;;;;;1.73;0.80;;;;;;;;;;4949787;28;20050;-66
2023/04/09 10:54:35;;;;;;;2.55;0.93;;;;;;;;;;4990292;28;20030;-66
2023/04/09 10:57:06;;;;;;;2.13;0.90;;;;;;;;;;4989749;28;20185;-66
2023/04/09 10:59:36;;;;;;;3.00;1.00;;;;;;;;;;4990301;28;20102;-66
2023/04/09 11:02:05;;;;;;;1.23;0.87;;;;;;;;;;4990152;28;20398;-67
2023/04/09 11:05:08;;;;;;;1.67;0.90;;;;;;;;;;4990314;28;20109;-68
2023/04/09 11:07:40;;;;;;;2.50;0.90;;;;;;;;;;4989569;28;20031;-67
2023/04/09 11:10:06;;;;;;;4.63;1.08;;;;;;;;;;4990278;28;20030;-67
2023/04/09 11:12:32;;;;;;;2.40;1.10;;;;;;;;;;4989866;28;20053;-65
2023/04/09 11:14:58;;;;;;;2.45;1.00;;;;;;;;;;4990132;28;20026;-67
2023/04/09 11:17:23;;;;;;;1.88;1.00;;;;;;;;;;4989870;28;20044;-67
2023/04/09 11:19:49;;;;;;;2.42;0.80;;;;;;;;;;4988950;28;20498;-67
2023/04/09 11:22:14;;;;;;;2.47;1.10;;;;;;;;;;4989979;28;20026;-67
2023/04/09 11:24:45;;;;;;;2.03;0.90;;;;;;;;;;5006372;28;20045;-67
2023/04/09 11:27:11;;;;;;;2.63;0.90;;;;;;;;;;4993317;28;20038;-67
2023/04/09 11:29:36;;;;;;;2.72;0.80;;;;;;;;;;4993576;28;20034;-67
2023/04/09 11:32:06;;;;;;;1.38;0.80;;;;;;;;;;4993299;28;20026;-68
2023/04/09 11:34:31;;;;;;;4.53;0.90;;;;;;;;;;4993644;28;20038;-68
2023/04/09 11:36:58;;;;;;;1.55;0.70;;;;;;;;;;4992968;28;20030;-67
2023/04/09 11:39:25;;;;;;;2.20;0.80;;;;;;;;;;4993565;28;20112;-67
2023/04/09 11:41:50;;;;;;;1.65;0.70;;;;;;;;;;4993129;28;20062;-67
2023/04/09 11:44:16;;;;;;;2.65;1.05;;;;;;;;;;4992974;28;20078;-67
2023/04/09 11:46:42;;;;;;;1.88;0.80;;;;;;;;;;4992899;28;20033;-68
2023/04/09 11:49:08;;;;;;;1.65;0.70;;;;;;;;;;4993243;28;20057;-68
2023/04/09 11:51:34;;;;;;;1.70;0.80;;;;;;;;;;4992947;28;20442;-68
2023/04/09 11:54:04;;;;;;;1.52;0.80;;;;;;;;;;4993336;28;20037;-67
2023/04/09 11:56:31;;;;;;;1.70;0.80;;;;;;;;;;4992683;28;20041;-67
2023/04/09 11:58:57;;;;;;;2.95;1.00;;;;;;;;;;4993111;28;20034;-67
2023/04/09 12:01:23;;;;;;;2.25;0.88;;;;;;;;;;4993019;28;20030;-67
2023/04/09 12:03:54;;;;;;;1.50;0.90;;;;;;;;;;4992882;28;20030;-67
2023/04/09 12:06:24;;;;;;;1.88;0.90;;;;;;;;;;4992575;28;20050;-66
2023/04/09 12:08:53;;;;;;;1.30;0.77;;;;;;;;;;4992949;28;20026;-67
2023/04/09 12:11:19;;;;;;;1.42;0.90;;;;;;;;;;4992808;28;20014;-67
2023/04/09 12:13:45;;;;;;;2.17;0.70;;;;;;;;;;4992792;28;20524;-67
2023/04/09 12:16:11;;;;;;;1.20;0.70;;;;;;;;;;4992793;28;20702;-68
2023/04/09 12:18:37;;;;;;;1.42;0.82;;;;;;;;;;4992366;28;20031;-67
2023/04/09 12:21:03;;;;;;;1.80;0.98;;;;;;;;;;4992396;28;20041;-67
2023/04/09 12:23:32;;;;;;;1.92;0.90;;;;;;;;;;4992407;28;20053;-67
2023/04/09 12:26:01;;;;;;;1.98;0.80;;;;;;;;;;4992563;28;20065;-67
2023/04/09 12:28:27;;;;;;;1.73;0.90;;;;;;;;;;4990977;28;20038;-66
2023/04/09 12:30:53;;;;;;;1.02;0.70;;;;;;;;;;4992644;28;20519;-67
2023/04/09 12:33:20;;;;;;;2.25;0.80;;;;;;;;;;4992349;28;20034;-67
2023/04/09 12:35:45;;;;;;;3.03;1.20;;;;;;;;;;4990303;28;20520;-67
2023/04/09 12:38:11;;;;;;;4.28;1.10;;;;;;;;;;4991939;28;20050;-68
2023/04/09 12:40:37;;;;;;;3.50;0.88;;;;;;;;;;4992372;28;20038;-67
2023/04/09 12:43:03;;;;;;;1.33;0.70;;;;;;;;;;4992246;28;20030;-68
2023/04/09 12:45:29;;;;;;;2.08;0.70;;;;;;;;;;4992011;28;20046;-67
2023/04/09 12:47:54;;;;;;;1.75;0.80;;;;;;;;;;4991994;28;20093;-67
2023/04/09 12:50:20;;;;;;;3.65;0.80;;;;;;;;;;4992255;28;20022;-68
2023/04/09 12:52:45;;;;;;;2.50;0.90;;;;;;;;;;4991665;28;20042;-67
2023/04/09 12:55:12;;;;;;;2.47;0.93;;;;;;;;;;4991930;28;20026;-67
2023/04/09 12:57:38;;;;;;;1.60;0.73;;;;;;;;;;4991524;28;20030;-66
2023/04/09 13:00:06;;;;;;;1.50;0.98;;;;;;;;;;4991988;28;20038;-67
2023/04/09 13:02:32;;;;;;;2.00;0.77;;;;;;;;;;4991504;28;20129;-67
2023/04/09 13:04:58;;;;;;;1.83;0.82;;;;;;;;;;4992266;28;20034;-67
2023/04/09 13:07:25;;;;;;;1.30;0.80;;;;;;;;;;4989856;28;20061;-67
2023/04/09 13:09:51;;;;;;;0.98;0.60;;;;;;;;;;4991755;28;20505;-67
2023/04/09 13:12:16;;;;;;;0.98;0.60;;;;;;;;;;4991561;28;20077;-67
2023/04/09 13:14:46;;;;;;;1.58;0.73;;;;;;;;;;4991661;28;20038;-67
2023/04/09 13:17:11;;;;;;;1.02;0.60;;;;;;;;;;4991328;28;20172;-67
2023/04/09 13:19:37;;;;;;;2.97;0.70;;;;;;;;;;4991770;28;20101;-67
2023/04/09 13:22:02;;;;;;;0.73;0.60;;;;;;;;;;4991502;28;20027;-67
2023/04/09 13:24:27;;;;;;;1.30;0.70;;;;;;;;;;4991668;28;20033;-67
2023/04/09 13:26:53;;;;;;;1.42;0.70;;;;;;;;;;4991559;28;20101;-66
2023/04/09 13:29:18;;;;;;;3.00;0.70;;;;;;;;;;4991130;28;20027;-66
2023/04/09 13:31:44;;;;;;;1.40;0.80;;;;;;;;;;4991392;28;20121;-66
2023/04/09 13:34:10;;;;;;;1.60;0.80;;;;;;;;;;4991349;28;20030;-65
2023/04/09 13:36:35;;;;;;;1.25;0.77;;;;;;;;;;4991144;28;20060;-68
2023/04/09 13:39:03;;;;;;;1.27;0.70;;;;;;;;;;4990835;28;20442;-66
2023/04/09 13:41:32;;;;;;;2.20;0.70;;;;;;;;;;4991210;28;20501;-67
2023/04/09 13:43:59;;;;;;;0.88;0.70;;;;;;;;;;4990944;28;20026;-67
2023/04/09 13:46:24;;;;;;;1.73;0.70;;;;;;;;;;4991162;28;20489;-66
2023/04/09 13:48:50;;;;;;;2.22;0.70;;;;;;;;;;4990692;28;20038;-67
2023/04/09 13:51:15;;;;;;;2.00;0.73;;;;;;;;;;4990933;28;20022;-68
2023/04/09 13:53:41;;;;;;;1.00;0.70;;;;;;;;;;4989635;28;20027;-67
2023/04/09 13:56:06;;;;;;;1.35;0.70;;;;;;;;;;4990934;28;20061;-66
2023/04/09 13:58:31;;;;;;;1.25;0.60;;;;;;;;;;4990578;28;20029;-67
2023/04/09 14:00:57;;;;;;;2.20;0.50;;;;;;;;;;4991066;28;20026;-67
2023/04/09 14:03:22;;;;;;;1.10;0.70;;;;;;;;;;4990819;28;20089;-67
2023/04/09 14:05:48;;;;;;;2.75;0.82;;;;;;;;;;4990942;28;20500;-67
2023/04/09 14:08:15;;;;;;;2.15;0.80;;;;;;;;;;4990287;28;20037;-67
2023/04/09 14:10:40;;;;;;;2.08;0.70;;;;;;;;;;4990906;28;20096;-67
2023/04/09 14:13:09;;;;;;;2.03;0.63;;;;;;;;;;4990666;28;20058;-67
2023/04/09 14:15:35;;;;;;;1.08;0.70;;;;;;;;;;4990848;28;20437;-67
2023/04/09 14:18:01;;;;;;;2.58;0.70;;;;;;;;;;4990401;28;20026;-67
2023/04/09 14:20:26;;;;;;;0.70;0.50;;;;;;;;;;4990728;28;20386;-66
2023/04/09 14:22:52;;;;;;;0.90;0.65;;;;;;;;;;4990338;28;20026;-67
2023/04/09 14:25:17;;;;;;;1.17;0.70;;;;;;;;;;4990592;28;20025;-67
2023/04/09 14:27:42;;;;;;;1.98;0.70;;;;;;;;;;4989039;28;20172;-67
2023/04/09 14:30:09;;;;;;;1.67;0.70;;;;;;;;;;4990540;28;20495;-66
2023/04/09 14:32:34;;;;;;;1.73;0.70;;;;;;;;;;4990476;28;20457;-67
2023/04/09 14:35:00;;;;;;;1.73;0.77;;;;;;;;;;4990360;28;20110;-67
2023/04/09 14:37:26;;;;;;;0.98;0.60;;;;;;;;;;4990414;28;20121;-67
2023/04/09 14:39:52;;;;;;;1.10;0.70;;;;;;;;;;4988963;28;20139;-67
2023/04/09 14:42:17;;;;;;;1.75;0.70;;;;;;;;;;4990505;28;20038;-67
2023/04/09 14:44:43;;;;;;;1.70;0.68;;;;;;;;;;4990037;28;20422;-66